Time;durP1;ratioP1;P1;durP2;ratioP2;P2;SDS_P1;SDS_P2;PMS_P1;PMS_P2;Temp;Humidity;BMP_temperature;BMP_pressure;BME280_temperature;BME280_humidity;BME280_pressure;Samples;Min_cycle;Max_cycle;Signal;HPM_P1;HPM_P2
2023/12/16 00:00:57;;;;;;;11.55;6.75;;;;;;;5.66;100.00;103494.28;10481124;28;20121;-83
2023/12/16 00:05:58;;;;;;;10.73;6.72;;;;;;;5.67;100.00;103496.13;10481124;28;20067;-83
2023/12/16 00:10:58;;;;;;;14.65;7.55;;;;;;;5.60;100.00;103498.81;10482100;28;20119;-83
2023/12/16 00:15:59;;;;;;;18.45;6.90;;;;;;;5.57;100.00;103501.06;10491899;28;20050;-83
2023/12/16 00:20:59;;;;;;;14.40;7.57;;;;;;;5.61;100.00;103516.25;10484899;28;20032;-82
2023/12/16 00:26:00;;;;;;;13.15;6.20;;;;;;;5.57;100.00;103519.25;10488522;28;20055;-83
2023/12/16 00:31:00;;;;;;;16.20;5.47;;;;;;;5.57;100.00;103533.16;10473384;28;20256;-84
2023/12/16 00:36:01;;;;;;;22.38;6.82;;;;;;;5.49;100.00;103526.19;10509197;27;20080;-83
2023/12/16 00:41:01;;;;;;;17.02;6.55;;;;;;;5.41;100.00;103514.94;10473755;28;20086;-83
2023/12/16 00:46:02;;;;;;;23.48;7.88;;;;;;;5.47;100.00;103521.59;10500089;28;20136;-83
2023/12/16 00:51:02;;;;;;;21.40;7.32;;;;;;;5.41;100.00;103506.22;10470750;28;20038;-83
2023/12/16 00:56:03;;;;;;;17.98;7.47;;;;;;;5.46;100.00;103498.97;10486853;28;20119;-83
2023/12/16 01:01:04;;;;;;;14.07;8.15;;;;;;;5.57;100.00;103496.78;10484661;28;20407;-83
2023/12/16 01:06:04;;;;;;;21.45;7.32;;;;;;;5.50;100.00;103504.66;10488250;28;20471;-83
2023/12/16 01:11:05;;;;;;;13.73;5.05;;;;;;;5.57;100.00;103498.47;10487180;28;20048;-83
2023/12/16 01:16:06;;;;;;;10.32;5.90;;;;;;;5.52;100.00;103512.63;10484960;28;20045;-83
2023/12/16 01:21:08;;;;;;;10.35;5.22;;;;;;;5.55;100.00;103520.75;10485172;28;20033;-83
2023/12/16 01:26:09;;;;;;;;;;;;;;;5.55;100.00;103523.34;10441965;28;20033;-83
2023/12/16 01:31:09;;;;;;;17.23;5.60;;;;;;;5.50;100.00;103517.63;10478328;28;19970;-83
2023/12/16 01:36:10;;;;;;;15.93;6.53;;;;;;;5.44;100.00;103522.16;10484330;28;20542;-83
2023/12/16 01:41:10;;;;;;;15.77;6.10;;;;;;;5.48;100.00;103515.63;10484732;28;20135;-83
2023/12/16 01:46:11;;;;;;;10.65;3.90;;;;;;;5.42;100.00;103508.06;10482244;28;20182;-83
2023/12/16 01:51:11;;;;;;;18.13;5.03;;;;;;;5.50;100.00;103512.44;10492805;28;20071;-83
2023/12/16 01:56:12;;;;;;;13.07;5.13;;;;;;;5.54;100.00;103505.91;10465587;28;20123;-83
2023/12/16 02:01:12;;;;;;;12.65;4.95;;;;;;;5.44;100.00;103514.34;10483613;28;20044;-83
2023/12/16 02:06:13;;;;;;;10.90;3.40;;;;;;;5.44;100.00;103512.69;10473459;28;20142;-83
2023/12/16 02:11:13;;;;;;;11.18;3.88;;;;;;;5.47;100.00;103511.19;10483416;28;20048;-83
2023/12/16 02:16:14;;;;;;;10.10;4.78;;;;;;;5.52;100.00;103510.03;10466036;28;20083;-83
2023/12/16 02:21:14;;;;;;;12.75;4.50;;;;;;;5.47;100.00;103501.72;10445610;28;20047;-83
2023/12/16 02:26:15;;;;;;;10.63;3.63;;;;;;;5.52;100.00;103500.53;10442878;28;20576;-83
2023/12/16 02:31:15;;;;;;;11.98;6.72;;;;;;;5.53;100.00;103512.78;10475078;28;20102;-83
2023/12/16 02:36:16;;;;;;;16.08;4.95;;;;;;;5.52;100.00;103517.81;10501456;28;20097;-84
2023/12/16 02:41:16;;;;;;;10.48;4.70;;;;;;;5.57;100.00;103514.06;10487371;28;20066;-83
2023/12/16 02:46:17;;;;;;;13.82;6.10;;;;;;;5.62;100.00;103510.28;10485300;28;20029;-84
2023/12/16 02:51:20;;;;;;;10.60;3.97;;;;;;;5.63;100.00;103521.59;10492578;28;20135;-84
2023/12/16 02:56:21;;;;;;;10.73;4.35;;;;;;;5.57;100.00;103512.38;10453015;28;20044;-83
2023/12/16 03:01:22;;;;;;;11.93;4.07;;;;;;;5.62;100.00;103506.75;10478994;28;20032;-83
2023/12/16 03:06:22;;;;;;;14.77;4.93;;;;;;;5.64;100.00;103510.44;10480415;28;20136;-83
2023/12/16 03:11:23;;;;;;;8.95;3.75;;;;;;;5.55;100.00;103516.47;10478407;28;20044;-83
2023/12/16 03:16:23;;;;;;;10.63;4.53;;;;;;;5.44;100.00;103502.31;10473357;28;20038;-83
2023/12/16 03:21:24;;;;;;;17.42;5.60;;;;;;;5.62;100.00;103512.88;10467623;28;20457;-82
2023/12/16 03:26:25;;;;;;;19.77;5.65;;;;;;;5.66;100.00;103516.72;10473279;28;20044;-84
2023/12/16 03:31:25;;;;;;;12.10;4.53;;;;;;;5.49;100.00;103525.28;10484429;28;20119;-82
2023/12/16 03:36:27;;;;;;;18.92;5.22;;;;;;;5.38;100.00;103530.19;10463962;28;20135;-82
2023/12/16 03:41:28;;;;;;;13.63;4.45;;;;;;;5.17;100.00;103514.81;10479226;28;20539;-82
2023/12/16 03:46:28;;;;;;;13.25;5.00;;;;;;;5.23;100.00;103511.22;10477418;28;20047;-82
2023/12/16 03:51:29;;;;;;;10.30;5.22;;;;;;;5.26;100.00;103501.16;10497099;28;20124;-82
2023/12/16 03:56:30;;;;;;;10.82;4.22;;;;;;;5.31;100.00;103495.56;10461016;28;20554;-81
2023/12/16 04:01:30;;;;;;;16.67;4.10;;;;;;;5.24;100.00;103505.25;10467144;28;20123;-82
2023/12/16 04:06:31;;;;;;;16.45;4.80;;;;;;;5.20;100.00;103503.09;10464103;28;20044;-81
2023/12/16 04:11:31;;;;;;;20.23;6.30;;;;;;;5.17;100.00;103497.53;10468579;28;20124;-81
2023/12/16 04:16:32;;;;;;;12.32;5.63;;;;;;;4.99;100.00;103499.00;10456559;28;20076;-81
2023/12/16 04:21:32;;;;;;;11.23;5.13;;;;;;;4.84;100.00;103505.97;10503014;28;20040;-81
2023/12/16 04:26:35;;;;;;;15.30;4.57;;;;;;;4.76;100.00;103510.31;10484106;28;20130;-82
2023/12/16 04:31:35;;;;;;;11.57;4.70;;;;;;;4.89;100.00;103512.59;10463598;28;20040;-82
2023/12/16 04:36:35;;;;;;;12.57;5.72;;;;;;;4.88;100.00;103499.47;10495688;28;20123;-81
2023/12/16 04:41:36;;;;;;;14.27;5.20;;;;;;;4.91;100.00;103511.09;10506310;28;20071;-81
2023/12/16 04:46:37;;;;;;;14.30;4.85;;;;;;;4.87;100.00;103505.41;10482725;28;20054;-81
2023/12/16 04:51:37;;;;;;;13.98;4.80;;;;;;;5.01;100.00;103507.91;10477308;28;20071;-82
2023/12/16 04:56:38;;;;;;;14.93;4.85;;;;;;;5.12;100.00;103516.88;10491723;28;20041;-82
2023/12/16 05:01:38;;;;;;;9.75;4.28;;;;;;;5.17;100.00;103518.31;10471410;28;20562;-82
2023/12/16 05:06:38;;;;;;;8.80;5.28;;;;;;;5.21;100.00;103517.91;10483851;28;20035;-82
2023/12/16 05:11:39;;;;;;;18.08;4.90;;;;;;;5.27;100.00;103508.22;10474349;28;20536;-82
2023/12/16 05:16:39;;;;;;;12.25;4.70;;;;;;;5.31;100.00;103512.09;10489015;28;20068;-82
2023/12/16 05:21:40;;;;;;;12.70;5.13;;;;;;;5.35;100.00;103503.88;10489154;28;20032;-82
2023/12/16 05:26:41;;;;;;;14.23;5.13;;;;;;;5.33;100.00;103517.44;10498209;28;20043;-82
2023/12/16 05:31:42;;;;;;;12.80;4.82;;;;;;;5.37;100.00;103510.16;10448018;28;20563;-82
2023/12/16 05:36:42;;;;;;;13.07;3.80;;;;;;;5.35;100.00;103513.34;10452860;28;20470;-81
2023/12/16 05:41:43;;;;;;;14.63;6.68;;;;;;;5.32;100.00;103516.53;10477374;28;20159;-81
2023/12/16 05:46:43;;;;;;;13.07;5.25;;;;;;;5.31;100.00;103519.88;10496884;28;20037;-81
2023/12/16 05:51:44;;;;;;;14.45;4.75;;;;;;;5.28;100.00;103533.44;10478923;28;20044;-80
2023/12/16 05:56:46;;;;;;;17.38;4.88;;;;;;;5.07;100.00;103531.00;10480241;28;20067;-81
2023/12/16 06:01:47;;;;;;;19.10;5.38;;;;;;;4.90;100.00;103539.50;10470505;28;20063;-82
2023/12/16 06:06:47;;;;;;;12.07;4.95;;;;;;;4.61;100.00;103544.88;10466442;28;20131;-83
2023/12/16 06:11:51;;;;;;;12.45;4.22;;;;;;;4.35;100.00;103548.88;10447826;28;20488;-85
2023/12/16 06:16:51;;;;;;;15.30;7.60;;;;;;;4.25;100.00;103540.78;10478738;28;20110;-84
2023/12/16 06:21:52;;;;;;;15.25;4.88;;;;;;;4.13;100.00;103536.75;10467530;28;20174;-80
2023/12/16 06:26:53;;;;;;;12.57;5.00;;;;;;;4.00;100.00;103539.59;10429860;28;20387;-80
2023/12/16 06:31:53;;;;;;;12.63;5.57;;;;;;;3.99;100.00;103542.94;10434490;28;20033;-81
2023/12/16 06:36:54;;;;;;;18.40;6.28;;;;;;;3.82;100.00;103550.56;10508211;28;20471;-82
2023/12/16 06:41:54;;;;;;;13.02;4.90;;;;;;;3.81;100.00;103553.91;10483859;28;20147;-81
2023/12/16 06:46:55;;;;;;;12.80;5.13;;;;;;;3.67;100.00;103548.75;10485124;28;20182;-81
2023/12/16 06:51:55;;;;;;;14.18;6.53;;;;;;;3.65;100.00;103546.00;10484537;28;20131;-83
2023/12/16 06:56:56;;;;;;;12.88;5.68;;;;;;;3.70;100.00;103549.09;10490478;28;20160;-83
2023/12/16 07:01:56;;;;;;;20.77;5.07;;;;;;;3.72;100.00;103551.91;10466685;28;20127;-83
2023/12/16 07:06:57;;;;;;;14.60;5.75;;;;;;;3.82;100.00;103545.38;10465597;28;20036;-83
2023/12/16 07:11:57;;;;;;;16.48;5.85;;;;;;;3.63;100.00;103550.06;10482601;28;20127;-83
2023/12/16 07:16:58;;;;;;;14.70;4.80;;;;;;;3.63;100.00;103538.75;10484540;28;20116;-83
2023/12/16 07:21:58;;;;;;;19.55;6.53;;;;;;;3.79;100.00;103537.25;10443133;28;20090;-82
2023/12/16 07:26:59;;;;;;;13.85;4.35;;;;;;;3.65;100.00;103534.69;10482486;28;20040;-82
2023/12/16 07:31:59;;;;;;;5.30;2.45;;;;;;;3.59;100.00;103541.72;10482373;28;20139;-82
2023/12/16 07:37:00;;;;;;;14.25;7.32;;;;;;;3.67;100.00;103554.88;10482613;28;20463;-82
2023/12/16 07:42:00;;;;;;;5.90;3.22;;;;;;;3.81;100.00;103553.00;10448814;28;20135;-82
2023/12/16 07:47:01;;;;;;;7.30;3.80;;;;;;;3.82;100.00;103554.84;10481373;28;20170;-82
2023/12/16 07:52:01;;;;;;;10.25;3.85;;;;;;;3.94;100.00;103560.53;10483358;28;20182;-83
2023/12/16 07:57:02;;;;;;;7.93;3.00;;;;;;;3.95;100.00;103567.56;10481003;28;20487;-82
2023/12/16 08:02:06;;;;;;;9.63;4.13;;;;;;;3.94;100.00;103566.66;10483636;28;20047;-83
2023/12/16 08:07:07;;;;;;;7.55;3.90;;;;;;;3.90;100.00;103569.63;10482914;28;20039;-82
2023/12/16 08:12:07;;;;;;;4.60;3.17;;;;;;;4.00;100.00;103570.72;10466169;28;20046;-83
2023/12/16 08:17:08;;;;;;;9.63;3.78;;;;;;;4.23;100.00;103568.19;10482616;28;20036;-82
2023/12/16 08:22:08;;;;;;;19.63;5.43;;;;;;;4.43;100.00;103570.53;10447604;28;20177;-84
2023/12/16 08:27:09;;;;;;;4.13;2.75;;;;;;;4.55;100.00;103584.00;10483039;28;20482;-83
2023/12/16 08:32:09;;;;;;;6.25;4.22;;;;;;;4.46;100.00;103586.47;10462871;28;20127;-82
2023/12/16 08:37:10;;;;;;;6.82;3.80;;;;;;;4.57;100.00;103597.16;10481193;28;20131;-82
2023/12/16 08:42:10;;;;;;;10.85;4.13;;;;;;;4.75;100.00;103591.50;10466076;28;20115;-83
2023/12/16 08:47:11;;;;;;;14.13;4.95;;;;;;;4.60;100.00;103597.50;10489718;28;20105;-83
2023/12/16 08:52:12;;;;;;;17.23;4.60;;;;;;;4.87;100.00;103586.78;10490449;28;20044;-83
2023/12/16 08:57:12;;;;;;;11.50;4.63;;;;;;;5.12;100.00;103574.94;10480328;28;20419;-82
2023/12/16 09:02:14;;;;;;;4.93;3.17;;;;;;;5.41;100.00;103573.75;10487088;28;20067;-83
2023/12/16 09:07:14;;;;;;;7.43;3.08;;;;;;;5.75;100.00;103577.50;10480549;28;20388;-82
2023/12/16 09:12:15;;;;;;;15.65;3.88;;;;;;;5.91;100.00;103577.56;10512643;28;20048;-83
2023/12/16 09:17:15;;;;;;;15.57;5.88;;;;;;;6.00;100.00;103596.78;10500268;28;20039;-82
2023/12/16 09:22:16;;;;;;;5.00;2.70;;;;;;;6.14;100.00;103600.00;10488723;28;20898;-83
2023/12/16 09:27:17;;;;;;;5.38;2.55;;;;;;;6.27;100.00;103591.84;10485763;28;20063;-83
2023/12/16 09:32:17;;;;;;;7.43;3.33;;;;;;;6.38;100.00;103601.72;10486814;28;20464;-82
2023/12/16 09:37:18;;;;;;;7.95;3.28;;;;;;;6.57;100.00;103606.31;10489688;28;20060;-81
2023/12/16 09:42:18;;;;;;;9.40;3.92;;;;;;;6.84;100.00;103597.03;10486209;28;20538;-82
2023/12/16 09:47:19;;;;;;;5.57;2.15;;;;;;;6.98;100.00;103595.91;10468641;28;20119;-82
2023/12/16 09:52:19;;;;;;;5.00;3.05;;;;;;;7.09;100.00;103594.41;10491251;28;20197;-81
2023/12/16 09:57:21;;;;;;;7.45;3.00;;;;;;;7.14;100.00;103603.66;10469830;28;20544;-81
2023/12/16 10:02:25;;;;;;;5.72;2.75;;;;;;;7.41;100.00;103615.13;10467345;28;20068;-81
2023/12/16 10:07:25;;;;;;;12.93;2.08;;;;;;;7.71;100.00;103609.59;10487522;28;20044;-81
2023/12/16 10:12:32;;;;;;;10.07;2.20;;;;;;;7.89;100.00;103612.25;10484593;28;20078;-81
2023/12/16 10:17:33;;;;;;;11.10;3.13;;;;;;;8.04;100.00;103610.28;10467523;28;20429;-81
2023/12/16 10:22:33;;;;;;;5.45;2.30;;;;;;;8.32;100.00;103620.91;10483387;28;20115;-80
2023/12/16 10:27:34;;;;;;;15.98;4.00;;;;;;;8.29;100.00;103617.97;10483231;28;20052;-81
2023/12/16 10:32:39;;;;;;;8.05;3.72;;;;;;;8.41;100.00;103616.59;10484447;28;20553;-81
2023/12/16 10:37:48;;;;;;;15.95;3.83;;;;;;;8.49;100.00;103622.66;10496691;28;20511;-81
2023/12/16 10:42:48;;;;;;;6.20;3.10;;;;;;;8.59;100.00;103625.41;10483379;28;20033;-81
2023/12/16 10:47:50;;;;;;;9.25;3.58;;;;;;;8.62;100.00;103623.09;10465576;28;20044;-81
2023/12/16 10:52:51;;;;;;;8.85;4.55;;;;;;;8.58;100.00;103610.50;10483788;28;20105;-80
2023/12/16 10:58:12;;;;;;;8.68;3.47;;;;;;;8.66;100.00;103599.16;10482326;28;20507;-81
2023/12/16 11:03:20;;;;;;;5.25;3.90;;;;;;;8.63;100.00;103605.75;10449951;28;20041;-81
2023/12/16 11:08:21;;;;;;;6.25;3.75;;;;;;;8.53;100.00;103606.53;10454316;28;20096;-82
2023/12/16 11:13:21;;;;;;;11.63;4.88;;;;;;;8.36;100.00;103610.94;10480847;28;20127;-82
2023/12/16 11:18:29;;;;;;;11.95;4.75;;;;;;;8.35;100.00;103601.25;10481127;28;20153;-81
2023/12/16 11:23:29;;;;;;;11.65;4.30;;;;;;;8.37;100.00;103606.63;10464213;28;20037;-81
2023/12/16 11:28:30;;;;;;;6.25;2.90;;;;;;;8.33;100.00;103600.19;10484364;28;20407;-81
2023/12/16 11:33:50;;;;;;;12.57;4.32;;;;;;;8.22;100.00;103591.25;10480918;28;20036;-79
2023/12/16 11:38:51;;;;;;;6.30;3.00;;;;;;;8.18;100.00;103583.00;10481589;28;20044;-80
2023/12/16 11:43:53;;;;;;;10.63;4.32;;;;;;;8.31;100.00;103574.69;10486862;28;20552;-79
2023/12/16 11:48:53;;;;;;;9.80;4.43;;;;;;;8.34;100.00;103568.13;10463759;28;20090;-79
2023/12/16 11:53:54;;;;;;;8.10;5.03;;;;;;;8.40;100.00;103570.41;10464620;28;20127;-79
2023/12/16 11:59:00;;;;;;;9.43;4.13;;;;;;;8.34;100.00;103567.16;10464936;28;20123;-80
2023/12/16 12:04:02;;;;;;;12.15;4.68;;;;;;;8.23;100.00;103561.78;10482137;28;20083;-80
2023/12/16 12:09:03;;;;;;;24.98;5.55;;;;;;;8.16;100.00;103567.16;10482023;28;20044;-80
2023/12/16 12:14:03;;;;;;;6.47;3.53;;;;;;;8.18;100.00;103568.25;10490149;28;20044;-79
2023/12/16 12:19:04;;;;;;;14.95;4.80;;;;;;;8.20;100.00;103542.31;10486523;28;20036;-81
2023/12/16 12:24:05;;;;;;;21.05;4.75;;;;;;;8.28;100.00;103541.41;10472703;28;20024;-80
2023/12/16 12:29:06;;;;;;;10.13;3.53;;;;;;;8.30;100.00;103536.31;10489874;28;20040;-80
2023/12/16 12:34:06;;;;;;;7.35;4.57;;;;;;;8.29;100.00;103524.97;10488913;28;20136;-80
2023/12/16 12:39:07;;;;;;;9.23;3.95;;;;;;;8.25;100.00;103530.66;10491135;28;20084;-81
2023/12/16 12:44:11;;;;;;;8.73;3.60;;;;;;;8.13;100.00;103525.13;10487821;28;20123;-80
2023/12/16 12:49:12;;;;;;;17.38;5.32;;;;;;;8.13;100.00;103519.91;10471364;28;20453;-81
2023/12/16 12:54:13;;;;;;;4.80;2.00;;;;;;;8.05;100.00;103532.19;10488178;28;20074;-80
2023/12/16 12:59:13;;;;;;;12.00;4.15;;;;;;;8.09;100.00;103520.34;10488197;28;20037;-81
2023/12/16 13:04:14;;;;;;;16.25;4.20;;;;;;;8.02;100.00;103511.00;10487021;28;20384;-80
2023/12/16 13:09:14;;;;;;;8.25;3.80;;;;;;;8.02;100.00;103497.03;10471082;28;20044;-80
2023/12/16 13:14:15;;;;;;;6.13;3.10;;;;;;;7.96;100.00;103494.75;10489310;28;20124;-81
2023/12/16 13:19:15;;;;;;;9.75;2.50;;;;;;;7.83;100.00;103496.88;10497481;28;20123;-79
2023/12/16 13:24:16;;;;;;;7.30;3.60;;;;;;;7.82;100.00;103488.13;10490039;28;20560;-79
2023/12/16 13:29:18;;;;;;;4.57;1.77;;;;;;;7.79;100.00;103486.16;10468165;28;20123;-78
2023/12/16 13:34:19;;;;;;;10.88;2.75;;;;;;;7.75;100.00;103481.38;10487803;28;20040;-78
2023/12/16 13:39:20;;;;;;;4.50;1.92;;;;;;;7.70;100.00;103480.00;10486398;28;20067;-79
2023/12/16 13:44:21;;;;;;;19.70;3.88;;;;;;;7.71;100.00;103476.63;10499956;28;20044;-78
2023/12/16 13:49:21;;;;;;;22.80;3.58;;;;;;;7.74;100.00;103460.38;10483848;28;20123;-78
2023/12/16 13:54:21;;;;;;;13.75;4.43;;;;;;;7.75;100.00;103459.59;10469281;28;20048;-79
2023/12/16 13:59:22;;;;;;;12.57;3.17;;;;;;;7.71;100.00;103452.22;10484118;28;20109;-78
2023/12/16 14:04:23;;;;;;;17.13;6.22;;;;;;;7.75;100.00;103455.31;10487129;28;20071;-80
2023/12/16 14:09:23;;;;;;;17.83;3.83;;;;;;;7.69;100.00;103445.94;10483747;28;20387;-80
2023/12/16 14:14:24;;;;;;;4.85;2.55;;;;;;;7.67;100.00;103445.81;10485763;28;20636;-81
2023/12/16 14:19:24;;;;;;;14.60;4.03;;;;;;;7.70;100.00;103453.94;10467540;28;20032;-81
2023/12/16 14:24:25;;;;;;;22.88;4.47;;;;;;;7.67;100.00;103450.09;10486565;28;20045;-81
2023/12/16 14:29:27;;;;;;;10.30;3.95;;;;;;;7.67;100.00;103457.91;10483834;28;20066;-79
2023/12/16 14:34:28;;;;;;;15.80;3.53;;;;;;;7.59;100.00;103460.66;10484813;28;20041;-80
2023/12/16 14:39:28;;;;;;;6.35;3.50;;;;;;;7.60;100.00;103461.59;10466610;28;20086;-80
2023/12/16 14:44:29;;;;;;;20.50;6.90;;;;;;;7.63;100.00;103462.81;10482246;28;20111;-80
2023/12/16 14:49:29;;;;;;;18.88;4.20;;;;;;;7.59;100.00;103459.75;10484546;28;20048;-81
2023/12/16 14:54:30;;;;;;;22.27;4.50;;;;;;;7.55;100.00;103455.91;10512749;28;20127;-81
2023/12/16 14:59:31;;;;;;;12.00;5.35;;;;;;;7.54;100.00;103463.56;10468064;28;20036;-78
2023/12/16 15:04:33;;;;;;;9.48;4.40;;;;;;;7.49;100.00;103461.41;10449688;28;20048;-80
2023/12/16 15:09:34;;;;;;;16.75;5.22;;;;;;;7.51;100.00;103455.44;10461063;28;20044;-82
2023/12/16 15:14:34;;;;;;;10.45;4.57;;;;;;;7.40;100.00;103450.06;10458165;28;20569;-78
2023/12/16 15:19:36;;;;;;;13.43;5.60;;;;;;;7.41;100.00;103458.78;10480874;28;20068;-80
2023/12/16 15:24:38;;;;;;;10.07;3.50;;;;;;;7.43;100.00;103462.47;10483326;28;20033;-79
2023/12/16 15:29:39;;;;;;;18.13;4.97;;;;;;;7.39;100.00;103458.63;10463720;28;20037;-80
2023/12/16 15:34:40;;;;;;;9.35;3.78;;;;;;;7.41;100.00;103458.78;10482376;28;20511;-81
2023/12/16 15:39:44;;;;;;;20.55;7.15;;;;;;;7.33;100.00;103458.00;10481160;28;20047;-80
2023/12/16 15:44:44;;;;;;;20.02;6.10;;;;;;;7.27;100.00;103450.47;10474688;28;20032;-80
2023/12/16 15:49:45;;;;;;;13.32;7.18;;;;;;;7.28;100.00;103456.63;10479627;28;20036;-80
2023/12/16 15:54:45;;;;;;;23.63;6.28;;;;;;;7.26;100.00;103450.34;10491755;28;20124;-80
2023/12/16 15:59:46;;;;;;;15.43;6.22;;;;;;;7.25;100.00;103449.41;10479751;28;20048;-79
2023/12/16 16:04:46;;;;;;;15.95;8.80;;;;;;;7.22;100.00;103446.47;10486933;28;20436;-80
2023/12/16 16:09:47;;;;;;;19.75;8.50;;;;;;;7.23;100.00;103442.19;10494181;28;20115;-81
2023/12/16 16:14:48;;;;;;;15.10;6.68;;;;;;;7.17;100.00;103448.63;10473555;28;20064;-81
2023/12/16 16:19:49;;;;;;;20.83;7.20;;;;;;;7.17;100.00;103455.50;10458661;28;20056;-80
2023/12/16 16:24:51;;;;;;;13.07;6.90;;;;;;;7.12;100.00;103461.91;10471776;28;20128;-79
2023/12/16 16:29:52;;;;;;;20.15;10.15;;;;;;;7.15;100.00;103473.59;10480264;28;20063;-79
2023/12/16 16:34:52;;;;;;;20.95;10.13;;;;;;;7.14;100.00;103470.81;10477302;28;20557;-79
2023/12/16 16:39:53;;;;;;;13.77;7.72;;;;;;;7.17;100.00;103465.91;10479156;28;20051;-79
2023/12/16 16:44:54;;;;;;;19.45;7.75;;;;;;;7.13;100.00;103484.59;10483268;28;20102;-80
2023/12/16 16:49:54;;;;;;;24.35;9.48;;;;;;;7.09;100.00;103505.88;10479406;28;20032;-80
2023/12/16 16:54:55;;;;;;;23.30;10.82;;;;;;;7.11;100.00;103515.72;10478809;28;20136;-78
2023/12/16 17:00:00;;;;;;;27.30;12.50;;;;;;;7.10;100.00;103523.34;10463782;28;20428;-78
2023/12/16 17:05:03;;;;;;;23.95;10.57;;;;;;;7.06;100.00;103516.91;10461652;28;20047;-78
2023/12/16 17:10:05;;;;;;;28.42;13.07;;;;;;;7.08;100.00;103517.06;10487714;28;20040;-78
2023/12/16 17:15:06;;;;;;;21.25;12.63;;;;;;;7.09;100.00;103514.63;10466238;28;20090;-77
2023/12/16 17:20:09;;;;;;;19.90;11.95;;;;;;;7.05;100.00;103523.78;10486949;28;20560;-79
2023/12/16 17:25:10;;;;;;;18.80;12.10;;;;;;;7.06;100.00;103503.88;10464529;28;20045;-79
2023/12/16 17:30:11;;;;;;;33.88;12.85;;;;;;;7.09;100.00;103492.84;10486966;28;20044;-79
2023/12/16 17:35:11;;;;;;;19.58;10.40;;;;;;;7.10;100.00;103513.88;10493920;28;20048;-78
2023/12/16 17:40:12;;;;;;;17.92;9.60;;;;;;;7.11;100.00;103513.09;10486779;28;20119;-78
2023/12/16 17:45:13;;;;;;;17.42;10.85;;;;;;;7.09;100.00;103493.78;10486896;28;20052;-78
2023/12/16 17:50:13;;;;;;;20.63;11.88;;;;;;;7.09;100.00;103493.78;10485848;28;20089;-78
2023/12/16 17:55:14;;;;;;;22.10;12.90;;;;;;;7.13;100.00;103508.97;10486202;28;20480;-78
2023/12/16 18:00:15;;;;;;;15.13;10.10;;;;;;;7.09;100.00;103514.63;10484211;28;20127;-83
2023/12/16 18:05:18;;;;;;;24.60;12.18;;;;;;;7.11;100.00;103493.94;10469257;28;20040;-78
2023/12/16 18:10:18;;;;;;;22.80;12.05;;;;;;;7.12;100.00;103495.78;10455774;27;20037;-78
2023/12/16 18:15:19;;;;;;;32.88;13.10;;;;;;;7.11;100.00;103499.13;10483790;28;20127;-78
2023/12/16 18:20:23;;;;;;;23.05;10.98;;;;;;;7.11;100.00;103489.66;10485003;28;20117;-78
2023/12/16 18:25:24;;;;;;;18.77;11.25;;;;;;;7.05;100.00;103482.13;10484078;28;20044;-78
2023/12/16 18:30:25;;;;;;;22.73;11.55;;;;;;;7.06;100.00;103490.88;10485136;28;20116;-78
2023/12/16 18:35:25;;;;;;;22.97;10.70;;;;;;;7.05;100.00;103509.84;10484148;28;20045;-79
2023/12/16 18:40:27;;;;;;;17.20;11.75;;;;;;;7.07;100.00;103510.94;10466728;28;20044;-79
2023/12/16 18:45:28;;;;;;;20.48;11.38;;;;;;;7.04;100.00;103501.09;10483412;28;20036;-78
2023/12/16 18:50:28;;;;;;;18.58;11.90;;;;;;;7.05;100.00;103499.44;10463394;28;20040;-79
2023/12/16 18:55:29;;;;;;;21.13;13.27;;;;;;;7.07;100.00;103504.78;10481964;28;20036;-79
2023/12/16 19:00:29;;;;;;;22.27;14.77;;;;;;;7.04;100.00;103519.34;10484417;28;20064;-79
2023/12/16 19:05:31;;;;;;;28.92;14.48;;;;;;;7.01;100.00;103506.00;10482267;28;20047;-79
2023/12/16 19:10:32;;;;;;;23.38;12.25;;;;;;;7.02;100.00;103514.75;10483180;28;20056;-79
2023/12/16 19:15:32;;;;;;;21.05;12.73;;;;;;;7.03;100.00;103513.97;10482265;28;20381;-79
2023/12/16 19:20:33;;;;;;;22.80;13.50;;;;;;;7.05;100.00;103504.66;10483035;28;20118;-79
2023/12/16 19:25:33;;;;;;;26.52;12.77;;;;;;;6.99;100.00;103517.94;10480789;28;20128;-79
2023/12/16 19:30:34;;;;;;;21.83;12.57;;;;;;;7.00;100.00;103522.38;10479722;28;20178;-79
2023/12/16 19:35:34;;;;;;;24.55;14.77;;;;;;;7.03;100.00;103496.66;10483354;28;20041;-78
2023/12/16 19:40:35;;;;;;;22.02;13.15;;;;;;;7.01;100.00;103506.00;10481348;28;20123;-79
2023/12/16 19:45:35;;;;;;;23.80;12.43;;;;;;;6.98;100.00;103504.78;10481833;28;20156;-78
2023/12/16 19:50:36;;;;;;;32.17;13.25;;;;;;;6.96;100.00;103507.19;10480663;28;20042;-79
2023/12/16 19:55:36;;;;;;;23.13;12.23;;;;;;;6.98;100.00;103495.25;10464624;28;20113;-79
2023/12/16 20:00:37;;;;;;;21.92;14.48;;;;;;;6.95;100.00;103501.84;10482212;28;20115;-79
2023/12/16 20:05:38;;;;;;;20.52;11.90;;;;;;;6.99;100.00;103504.00;10480837;28;20056;-78
2023/12/16 20:10:41;;;;;;;22.88;13.57;;;;;;;6.96;100.00;103516.72;10482415;28;20498;-78
2023/12/16 20:15:42;;;;;;;24.55;12.23;;;;;;;6.92;100.00;103515.44;10461131;28;20461;-78
2023/12/16 20:20:43;;;;;;;24.13;13.88;;;;;;;6.90;100.00;103516.97;10486148;28;20089;-78
2023/12/16 20:25:43;;;;;;;23.27;11.90;;;;;;;6.92;100.00;103517.16;10459766;28;20487;-78
2023/12/16 20:30:44;;;;;;;33.58;15.73;;;;;;;6.90;100.00;103524.78;10481394;28;20075;-78
2023/12/16 20:35:44;;;;;;;27.30;14.57;;;;;;;6.86;100.00;103541.78;10478331;28;20491;-78
2023/12/16 20:40:45;;;;;;;39.67;14.93;;;;;;;6.83;100.00;103544.06;10481671;28;20035;-79
2023/12/16 20:45:47;;;;;;;22.35;12.68;;;;;;;6.80;100.00;103543.72;10479830;28;20059;-78
2023/12/16 20:50:47;;;;;;;;;;;;;;;6.78;100.00;103547.84;10499497;28;20507;-78
2023/12/16 20:55:48;;;;;;;26.92;15.55;;;;;;;6.69;100.00;103547.78;10487699;28;19927;-79
2023/12/16 21:00:48;;;;;;;30.83;16.00;;;;;;;6.70;100.00;103533.09;10486766;28;20067;-80
2023/12/16 21:05:49;;;;;;;29.90;16.08;;;;;;;6.66;100.00;103546.53;10491245;28;20036;-80
2023/12/16 21:10:49;;;;;;;27.92;15.32;;;;;;;6.64;100.00;103558.47;10489495;28;20119;-80
2023/12/16 21:15:51;;;;;;;33.13;17.75;;;;;;;6.60;100.00;103542.53;10486598;28;20037;-80
2023/12/16 21:20:51;;;;;;;22.60;12.60;;;;;;;6.56;100.00;103535.16;10488907;28;20059;-80
2023/12/16 21:25:52;;;;;;;33.45;19.63;;;;;;;6.58;100.00;103535.31;10487448;28;20132;-80
2023/12/16 21:30:52;;;;;;;38.83;18.58;;;;;;;6.49;100.00;103535.25;10491737;28;20547;-81
2023/12/16 21:35:53;;;;;;;35.60;20.73;;;;;;;6.47;100.00;103548.09;10486640;28;20155;-81
2023/12/16 21:40:54;;;;;;;40.65;18.98;;;;;;;6.44;100.00;103562.47;10444131;28;20108;-79
2023/12/16 21:45:55;;;;;;;32.50;19.13;;;;;;;6.45;100.00;103572.09;10484608;28;20040;-80
2023/12/16 21:50:57;;;;;;;42.55;22.05;;;;;;;6.45;100.00;103579.91;10451570;28;20254;-80
2023/12/16 21:55:57;;;;;;;;;;;;;;;6.43;100.00;103574.53;10486988;28;20032;-81
2023/12/16 22:00:58;;;;;;;39.85;21.50;;;;;;;6.41;100.00;103572.53;10485513;28;19939;-80
2023/12/16 22:05:58;;;;;;;39.35;23.70;;;;;;;6.42;100.00;103564.88;10483529;28;20151;-84
2023/12/16 22:10:59;;;;;;;54.45;23.90;;;;;;;6.40;100.00;103574.19;10468206;28;20025;-81
2023/12/16 22:16:00;;;;;;;47.65;24.20;;;;;;;6.42;100.00;103575.28;10486055;28;20483;-81
2023/12/16 22:21:03;;;;;;;42.28;23.13;;;;;;;6.41;100.00;103576.03;10468190;28;20031;-82
2023/12/16 22:26:04;;;;;;;57.30;26.70;;;;;;;6.43;100.00;103568.41;10468255;28;20047;-82
2023/12/16 22:31:04;;;;;;;49.50;24.38;;;;;;;6.42;100.00;103563.97;10485044;28;20479;-81
2023/12/16 22:36:05;;;;;;;47.90;26.45;;;;;;;6.41;100.00;103562.13;10468024;28;20037;-82
2023/12/16 22:41:05;;;;;;;55.85;28.20;;;;;;;6.39;100.00;103548.94;10485708;28;20033;-82
2023/12/16 22:46:06;;;;;;;42.35;24.60;;;;;;;6.37;100.00;103550.44;10453871;28;20465;-81